createdAt,value
2022-08-21T00:00:25.586Z,23.09
2022-08-21T00:02:55.731Z,23.16
2022-08-21T00:05:24.377Z,23.30
2022-08-21T00:07:51.711Z,23.34
2022-08-21T00:10:19.833Z,23.22
2022-08-21T00:12:47.384Z,23.19
2022-08-21T00:15:17.379Z,23.12
2022-08-21T00:17:44.714Z,22.98
2022-08-21T00:20:13.086Z,22.78
2022-08-21T00:22:40.719Z,22.75
2022-08-21T00:25:08.666Z,22.67
2022-08-21T00:27:36.778Z,22.69
2022-08-21T00:30:05.498Z,22.71
2022-08-21T00:32:33.074Z,22.66
2022-08-21T00:35:00.306Z,22.61
2022-08-21T00:37:27.996Z,22.64
2022-08-21T00:39:57.862Z,22.66
2022-08-21T00:42:25.237Z,22.67
2022-08-21T00:44:52.624Z,22.71
2022-08-21T00:47:20.007Z,22.68
2022-08-21T00:49:47.303Z,22.71
2022-08-21T00:52:16.820Z,22.68
2022-08-21T00:54:46.283Z,22.68
2022-08-21T00:57:21.865Z,22.69
2022-08-21T00:59:52.489Z,22.62
2022-08-21T01:02:21.053Z,22.57
2022-08-21T01:04:48.498Z,22.54
2022-08-21T01:07:15.993Z,22.50
2022-08-21T01:09:44.386Z,22.42
2022-08-21T01:12:12.626Z,22.43
2022-08-21T01:14:41.381Z,22.42
2022-08-21T01:17:09.126Z,22.43
2022-08-21T01:19:36.376Z,22.34
2022-08-21T01:22:03.942Z,22.34
2022-08-21T01:24:32.607Z,22.38
2022-08-21T01:27:01.032Z,22.37
2022-08-21T01:29:34.654Z,22.41
2022-08-21T01:32:05.236Z,22.41
2022-08-21T01:34:33.453Z,22.35
2022-08-21T01:37:00.684Z,22.37
2022-08-21T01:39:27.912Z,22.34
2022-08-21T01:41:55.118Z,22.33
2022-08-21T01:44:22.869Z,22.33
2022-08-21T01:46:50.700Z,22.25
2022-08-21T01:49:18.348Z,22.23
2022-08-21T01:51:45.536Z,22.21
2022-08-21T01:54:12.836Z,22.21
2022-08-21T01:56:41.257Z,22.23
2022-08-21T01:59:08.669Z,22.28
2022-08-21T02:01:36.387Z,22.34
2022-08-21T02:04:03.941Z,22.46
2022-08-21T02:06:31.145Z,22.48
2022-08-21T02:08:58.677Z,22.47
2022-08-21T02:11:25.883Z,22.42
2022-08-21T02:13:53.028Z,22.51
2022-08-21T02:16:20.149Z,22.46
2022-08-21T02:18:48.361Z,22.39
2022-08-21T02:21:15.542Z,22.29
2022-08-21T02:23:42.998Z,22.21
2022-08-21T02:26:10.465Z,22.18
2022-08-21T02:28:37.976Z,22.16
2022-08-21T02:31:05.381Z,22.12
2022-08-21T02:33:32.877Z,22.16
2022-08-21T02:36:00.223Z,22.15
2022-08-21T02:38:28.991Z,22.17
2022-08-21T02:40:56.464Z,22.15
2022-08-21T02:43:25.104Z,22.17
2022-08-21T02:45:52.719Z,22.12
2022-08-21T02:48:22.175Z,22.09
2022-08-21T02:50:54.682Z,22.21
2022-08-21T02:53:22.889Z,22.22
2022-08-21T02:55:51.667Z,22.18
2022-08-21T02:58:20.638Z,22.12
2022-08-21T03:00:48.174Z,22.09
2022-08-21T03:03:15.640Z,21.98
2022-08-21T03:05:43.704Z,21.92
2022-08-21T03:08:12.488Z,21.92
2022-08-21T03:10:43.513Z,21.88
2022-08-21T03:13:11.880Z,21.85
2022-08-21T03:15:39.210Z,21.84
2022-08-21T03:18:07.790Z,21.85
2022-08-21T03:20:35.927Z,21.85
2022-08-21T03:23:04.395Z,21.87
2022-08-21T03:25:41.169Z,21.97
2022-08-21T03:28:13.397Z,21.96
2022-08-21T03:30:41.790Z,21.88
2022-08-21T03:33:09.155Z,21.83
2022-08-21T03:35:41.410Z,21.75
2022-08-21T03:38:08.841Z,21.65
2022-08-21T03:40:36.168Z,21.69
2022-08-21T03:43:03.405Z,21.71
2022-08-21T03:45:30.702Z,21.76
2022-08-21T03:47:59.673Z,21.75
2022-08-21T03:50:28.080Z,21.62
2022-08-21T03:52:55.694Z,21.57
2022-08-21T03:55:23.320Z,21.57
2022-08-21T03:57:50.553Z,21.63
2022-08-21T04:00:18.616Z,21.66
2022-08-21T04:02:46.554Z,21.65
2022-08-21T04:05:14.705Z,21.65
2022-08-21T04:07:42.054Z,21.65
2022-08-21T04:10:09.838Z,21.65
2022-08-21T04:12:37.226Z,21.68
2022-08-21T04:15:04.746Z,21.70
2022-08-21T04:17:31.971Z,21.70
2022-08-21T04:19:59.951Z,21.77
2022-08-21T04:22:27.848Z,21.79
2022-08-21T04:24:55.304Z,21.93
2022-08-21T04:27:22.559Z,21.95
2022-08-21T04:29:49.745Z,22.04
2022-08-21T04:32:24.229Z,21.96
2022-08-21T04:34:51.594Z,21.93
2022-08-21T04:37:18.814Z,21.95
2022-08-21T04:39:49.294Z,21.94
2022-08-21T04:42:18.743Z,21.90
2022-08-21T04:44:45.989Z,21.84
2022-08-21T04:47:13.188Z,21.84
2022-08-21T04:49:40.350Z,21.73
2022-08-21T04:52:07.580Z,21.61
2022-08-21T04:54:35.042Z,21.64
2022-08-21T04:57:04.684Z,21.65
2022-08-21T04:59:42.739Z,21.64
2022-08-21T05:02:10.672Z,21.63
2022-08-21T05:04:40.121Z,21.62
2022-08-21T05:07:08.453Z,21.69
2022-08-21T05:09:36.008Z,21.62
2022-08-21T05:12:03.610Z,21.61
2022-08-21T05:14:31.002Z,21.63
2022-08-21T05:16:58.150Z,21.73
2022-08-21T05:19:25.636Z,21.79
2022-08-21T05:21:53.062Z,21.83
2022-08-21T05:24:20.329Z,21.83
2022-08-21T05:26:47.905Z,21.78
2022-08-21T05:29:16.710Z,21.80
2022-08-21T05:31:46.068Z,21.82
2022-08-21T05:34:16.275Z,21.86
2022-08-21T05:36:44.866Z,21.75
2022-08-21T05:39:12.126Z,21.71
2022-08-21T05:41:39.461Z,21.75
2022-08-21T05:44:10.823Z,21.75
2022-08-21T05:46:38.706Z,21.77
2022-08-21T05:49:06.091Z,21.84
2022-08-21T05:51:33.311Z,21.86
2022-08-21T05:54:00.458Z,21.87
2022-08-21T05:56:27.627Z,21.94
2022-08-21T05:58:54.831Z,22.00
2022-08-21T06:01:22.212Z,22.02
2022-08-21T06:03:49.420Z,22.03
2022-08-21T06:06:17.084Z,22.16
2022-08-21T06:08:44.557Z,22.29
2022-08-21T06:11:11.930Z,22.35
2022-08-21T06:13:40.029Z,22.43
2022-08-21T06:16:11.396Z,22.44
2022-08-21T06:18:43.669Z,22.50
2022-08-21T06:21:12.628Z,22.57
2022-08-21T06:23:39.887Z,22.68
2022-08-21T06:26:08.185Z,22.81
2022-08-21T06:28:36.083Z,22.93
2022-08-21T06:31:11.418Z,23.05
2022-08-21T06:33:38.633Z,23.17
2022-08-21T06:36:06.110Z,23.27
2022-08-21T06:38:33.442Z,23.31
2022-08-21T06:41:00.611Z,23.45
2022-08-21T06:43:39.678Z,23.59
2022-08-21T06:46:08.646Z,23.75
2022-08-21T06:48:35.978Z,23.87
2022-08-21T06:51:03.620Z,24.00
2022-08-21T06:53:30.823Z,24.38
2022-08-21T06:55:58.033Z,24.65
2022-08-21T06:58:25.218Z,24.64
2022-08-21T07:00:53.999Z,24.62
2022-08-21T07:03:28.321Z,24.63
2022-08-21T07:05:56.109Z,24.64
2022-08-21T07:08:23.368Z,24.68
2022-08-21T07:10:50.803Z,24.69
2022-08-21T07:13:18.116Z,24.74
2022-08-21T07:15:45.833Z,24.77
2022-08-21T07:18:14.211Z,24.80
2022-08-21T07:20:42.127Z,24.87
2022-08-21T07:23:29.965Z,24.95
2022-08-21T07:25:57.152Z,25.00
2022-08-21T07:28:24.453Z,25.10
2022-08-21T07:30:54.158Z,25.19
2022-08-21T07:33:21.520Z,25.25
2022-08-21T07:35:48.967Z,25.29
2022-08-21T07:38:16.385Z,25.36
2022-08-21T07:40:43.822Z,25.38
2022-08-21T07:43:12.067Z,25.45
2022-08-21T07:45:39.419Z,25.45
2022-08-21T07:48:06.654Z,25.51
2022-08-21T07:50:33.888Z,25.59
2022-08-21T07:53:01.277Z,25.61
2022-08-21T07:55:28.520Z,25.67
2022-08-21T07:57:55.698Z,25.75
2022-08-21T08:00:28.736Z,25.78
2022-08-21T08:02:56.866Z,25.86
2022-08-21T08:05:26.514Z,25.92
2022-08-21T08:07:53.854Z,25.96
2022-08-21T08:10:22.246Z,26.09
2022-08-21T08:12:50.229Z,26.18
2022-08-21T08:15:20.358Z,26.25
2022-08-21T08:17:47.820Z,26.27
2022-08-21T08:20:16.545Z,26.24
2022-08-21T08:22:43.868Z,26.37
2022-08-21T08:25:18.672Z,26.51
2022-08-21T08:27:45.902Z,26.64
2022-08-21T08:30:14.793Z,26.72
2022-08-21T08:32:42.197Z,26.86
2022-08-21T08:35:09.891Z,26.93
2022-08-21T08:37:38.747Z,27.06
2022-08-21T08:40:13.503Z,27.18
2022-08-21T08:42:40.742Z,27.24
2022-08-21T08:45:08.059Z,27.41
2022-08-21T08:47:40.503Z,27.58
2022-08-21T08:50:25.139Z,27.73
2022-08-21T08:52:59.278Z,27.73
2022-08-21T08:55:34.958Z,28.01
2022-08-21T08:58:03.618Z,28.34
2022-08-21T09:00:31.990Z,28.37
2022-08-21T09:03:01.300Z,28.20
2022-08-21T09:05:38.771Z,28.24
2022-08-21T09:08:05.999Z,28.44
2022-08-21T09:10:37.122Z,29.15
2022-08-21T09:13:20.224Z,30.29
2022-08-21T09:16:05.530Z,30.05
2022-08-21T09:18:55.612Z,29.91
2022-08-21T09:21:32.037Z,30.10
2022-08-21T09:23:59.157Z,31.04
2022-08-21T09:26:28.226Z,31.39
2022-08-21T09:28:57.521Z,31.89
2022-08-21T09:31:26.957Z,31.72
2022-08-21T09:34:00.353Z,31.17
2022-08-21T09:36:33.806Z,30.70
2022-08-21T09:39:01.004Z,30.14
2022-08-21T09:41:29.872Z,29.92
2022-08-21T09:43:57.139Z,29.68
2022-08-21T09:46:25.799Z,29.64
2022-08-21T09:48:57.975Z,29.62
2022-08-21T09:51:27.027Z,29.58
2022-08-21T09:54:06.647Z,29.35
2022-08-21T09:56:58.568Z,29.31
2022-08-21T09:59:36.853Z,29.30
2022-08-21T10:02:21.048Z,29.16
2022-08-21T10:05:07.983Z,29.15
2022-08-21T10:07:37.970Z,29.21
2022-08-21T10:10:07.293Z,29.14
2022-08-21T10:12:34.612Z,29.19
2022-08-21T10:15:05.287Z,29.21
2022-08-21T10:17:38.277Z,29.19
2022-08-21T10:20:12.068Z,29.10
2022-08-21T10:22:45.513Z,29.08
2022-08-21T10:25:18.812Z,29.08
2022-08-21T10:28:09.032Z,29.08
2022-08-21T10:30:40.122Z,29.08
2022-08-21T10:33:25.973Z,28.78
2022-08-21T10:36:06.563Z,28.86
2022-08-21T10:39:11.824Z,28.94
2022-08-21T10:41:52.019Z,28.93
2022-08-21T10:44:40.118Z,28.95
2022-08-21T10:47:12.039Z,28.98
2022-08-21T10:50:05.796Z,29.00
2022-08-21T10:52:52.154Z,29.01
2022-08-21T10:55:23.667Z,29.02
2022-08-21T10:58:10.352Z,29.05
2022-08-21T11:00:49.022Z,29.07
2022-08-21T11:03:25.573Z,29.06
2022-08-21T11:05:54.243Z,29.08
2022-08-21T11:08:27.302Z,29.15
2022-08-21T11:11:08.644Z,29.12
2022-08-21T11:13:59.499Z,29.13
2022-08-21T11:16:32.561Z,29.15
2022-08-21T11:19:08.902Z,29.20
2022-08-21T11:21:43.442Z,29.17
2022-08-21T11:24:18.061Z,29.18
2022-08-21T11:26:51.347Z,29.27
2022-08-21T11:29:21.932Z,29.36
2022-08-21T11:31:49.051Z,29.32
2022-08-21T11:34:27.356Z,29.31
2022-08-21T11:37:13.132Z,29.33
2022-08-21T11:39:43.386Z,29.40
2022-08-21T11:42:16.697Z,29.34
2022-08-21T11:44:55.455Z,29.36
2022-08-21T11:47:31.716Z,29.42
2022-08-21T11:50:34.089Z,29.48
2022-08-21T11:53:09.986Z,29.50
2022-08-21T11:55:44.490Z,29.52
2022-08-21T11:58:19.043Z,29.54
2022-08-21T12:00:57.501Z,29.50
2022-08-21T12:03:29.069Z,29.50
2022-08-21T12:05:59.201Z,29.51
2022-08-21T12:08:29.228Z,29.51
2022-08-21T12:11:01.565Z,29.54
2022-08-21T12:13:35.710Z,29.54
2022-08-21T12:16:09.448Z,29.55
2022-08-21T12:18:38.943Z,29.59
2022-08-21T12:21:19.848Z,29.49
2022-08-21T12:23:49.735Z,29.52
2022-08-21T12:26:21.401Z,29.50
2022-08-21T12:28:48.766Z,29.61
2022-08-21T12:31:27.603Z,29.62
2022-08-21T12:34:00.128Z,29.65
2022-08-21T12:36:38.733Z,29.63
2022-08-21T12:39:12.130Z,29.66
2022-08-21T12:41:48.220Z,29.62
2022-08-21T12:44:17.067Z,29.61
2022-08-21T12:46:51.155Z,29.64
2022-08-21T12:49:35.303Z,29.69
2022-08-21T12:52:02.512Z,29.68
2022-08-21T12:54:37.890Z,29.74
2022-08-21T12:57:07.076Z,29.75
2022-08-21T12:59:39.625Z,29.84
2022-08-21T13:02:16.673Z,29.86
2022-08-21T13:04:44.208Z,29.83
2022-08-21T13:07:13.326Z,29.80
2022-08-21T13:09:45.630Z,29.75
2022-08-21T13:12:13.200Z,29.80
2022-08-21T13:14:45.988Z,29.80
2022-08-21T13:17:23.589Z,29.80
2022-08-21T13:20:01.446Z,29.79
2022-08-21T13:22:35.077Z,29.78
2022-08-21T13:25:06.608Z,29.74
2022-08-21T13:27:35.137Z,29.67
2022-08-21T13:30:08.388Z,29.63
2022-08-21T13:32:38.791Z,29.61
2022-08-21T13:35:10.922Z,29.64
2022-08-21T13:37:40.537Z,29.64
2022-08-21T13:40:09.104Z,29.63
2022-08-21T13:42:36.536Z,29.65
2022-08-21T13:45:03.930Z,29.67
2022-08-21T13:47:31.295Z,29.67
2022-08-21T13:49:59.445Z,29.67
2022-08-21T13:52:27.549Z,29.63
2022-08-21T13:55:08.387Z,29.66
2022-08-21T13:57:38.270Z,29.71
2022-08-21T14:00:13.297Z,29.78
2022-08-21T14:02:45.372Z,29.72
2022-08-21T14:05:17.480Z,29.68
2022-08-21T14:07:45.301Z,29.71
2022-08-21T14:10:16.267Z,29.69
2022-08-21T14:12:47.111Z,29.68
2022-08-21T14:15:15.500Z,29.81
2022-08-21T14:17:43.346Z,29.89
2022-08-21T14:20:12.221Z,29.89
2022-08-21T14:22:49.253Z,29.76
2022-08-21T14:25:25.632Z,29.63
2022-08-21T14:27:57.738Z,29.57
2022-08-21T14:30:30.135Z,29.67
2022-08-21T14:32:58.187Z,29.71
2022-08-21T14:35:25.700Z,29.56
2022-08-21T14:37:53.928Z,29.51
2022-08-21T14:40:23.034Z,29.49
2022-08-21T14:42:50.979Z,29.49
2022-08-21T14:45:27.853Z,29.57
2022-08-21T14:47:55.837Z,29.57
2022-08-21T14:50:23.070Z,29.57
2022-08-21T14:52:50.510Z,29.50
2022-08-21T14:55:18.899Z,29.50
2022-08-21T14:57:47.555Z,29.50
2022-08-21T15:00:17.928Z,29.48
2022-08-21T15:02:45.389Z,29.55
2022-08-21T15:05:13.389Z,29.60
2022-08-21T15:07:42.547Z,29.58
2022-08-21T15:10:10.003Z,29.58
2022-08-21T15:12:37.302Z,29.54
2022-08-21T15:15:08.623Z,29.50
2022-08-21T15:17:36.717Z,29.50
2022-08-21T15:20:05.243Z,29.47
2022-08-21T15:22:32.410Z,29.45
2022-08-21T15:25:02.031Z,29.46
2022-08-21T15:27:29.973Z,29.45
2022-08-21T15:29:57.193Z,29.42
2022-08-21T15:32:27.126Z,29.40
2022-08-21T15:34:54.803Z,29.36
2022-08-21T15:37:22.671Z,29.34
2022-08-21T15:39:54.195Z,29.31
2022-08-21T15:42:21.977Z,29.33
2022-08-21T15:44:49.352Z,29.30
2022-08-21T15:47:19.268Z,29.34
2022-08-21T15:49:46.523Z,29.32
2022-08-21T15:52:14.605Z,29.36
2022-08-21T15:54:42.426Z,29.36
2022-08-21T15:57:14.123Z,29.38
2022-08-21T15:59:46.724Z,29.40
2022-08-21T16:02:22.971Z,29.39
2022-08-21T16:04:50.278Z,29.41
2022-08-21T16:07:17.699Z,29.35
2022-08-21T16:09:45.337Z,29.32
2022-08-21T16:12:17.156Z,29.32
2022-08-21T16:14:44.352Z,29.30
2022-08-21T16:17:11.789Z,29.28
2022-08-21T16:19:39.716Z,29.24
2022-08-21T16:22:06.997Z,29.21
2022-08-21T16:24:34.433Z,29.19
2022-08-21T16:27:03.815Z,29.16
2022-08-21T16:29:36.765Z,29.16
2022-08-21T16:32:04.758Z,29.13
2022-08-21T16:34:32.042Z,29.13
2022-08-21T16:36:59.421Z,29.15
2022-08-21T16:39:26.872Z,29.13
2022-08-21T16:41:54.091Z,29.08
2022-08-21T16:44:22.088Z,29.07
2022-08-21T16:46:50.269Z,29.06
2022-08-21T16:49:17.573Z,29.04
2022-08-21T16:51:44.885Z,29.03
2022-08-21T16:54:12.204Z,29.01
2022-08-21T16:56:41.368Z,29.00
2022-08-21T16:59:11.056Z,28.97
2022-08-21T17:01:38.698Z,28.96
2022-08-21T17:04:06.090Z,28.95
2022-08-21T17:06:33.754Z,28.90
2022-08-21T17:09:04.352Z,28.87
2022-08-21T17:11:37.534Z,28.87
2022-08-21T17:14:07.905Z,28.86
2022-08-21T17:16:35.450Z,28.82
2022-08-21T17:19:02.684Z,28.80
2022-08-21T17:21:29.925Z,28.78
2022-08-21T17:23:57.184Z,28.75
2022-08-21T17:26:24.911Z,28.72
2022-08-21T17:28:54.904Z,28.69
2022-08-21T17:31:22.515Z,28.65
2022-08-21T17:33:52.715Z,28.63
2022-08-21T17:36:27.404Z,28.58
2022-08-21T17:38:55.207Z,28.54
2022-08-21T17:41:22.880Z,28.51
2022-08-21T17:43:51.607Z,28.49
2022-08-21T17:46:20.944Z,28.44
2022-08-21T17:48:48.140Z,28.39
2022-08-21T17:51:16.250Z,28.35
2022-08-21T17:53:45.021Z,28.30
2022-08-21T17:56:16.383Z,28.28
2022-08-21T17:58:51.431Z,28.23
2022-08-21T18:01:19.457Z,28.18
2022-08-21T18:03:47.378Z,28.14
2022-08-21T18:06:17.678Z,28.11
2022-08-21T18:08:45.974Z,28.07
2022-08-21T18:11:23.141Z,28.04
2022-08-21T18:13:53.085Z,28.00
2022-08-21T18:16:21.078Z,27.95
2022-08-21T18:18:49.179Z,27.90
2022-08-21T18:21:16.656Z,27.86
2022-08-21T18:23:45.038Z,27.84
2022-08-21T18:26:19.135Z,27.81
2022-08-21T18:28:46.543Z,27.79
2022-08-21T18:31:14.035Z,27.75
2022-08-21T18:33:57.046Z,27.74
2022-08-21T18:36:27.653Z,27.71
2022-08-21T18:39:13.577Z,27.67
2022-08-21T18:41:45.246Z,27.65
2022-08-21T18:44:13.857Z,27.63
2022-08-21T18:46:50.265Z,27.61
2022-08-21T18:49:18.049Z,27.60
2022-08-21T18:51:46.085Z,27.58
2022-08-21T18:54:14.905Z,27.56
2022-08-21T18:56:42.703Z,27.58
2022-08-21T18:59:18.573Z,27.57
2022-08-21T19:01:48.123Z,27.59
2022-08-21T19:04:41.155Z,27.77
2022-08-21T19:07:03.772Z,27.84
2022-08-21T19:09:31.276Z,27.84
2022-08-21T19:11:58.590Z,27.81
2022-08-21T19:14:25.928Z,27.72
2022-08-21T19:16:53.237Z,27.65
2022-08-21T19:19:20.541Z,27.56
2022-08-21T19:21:49.543Z,27.43
2022-08-21T19:24:18.165Z,27.35
2022-08-21T19:26:50.348Z,27.24
2022-08-21T19:29:34.569Z,27.20
2022-08-21T19:32:06.429Z,27.14
2022-08-21T19:34:36.089Z,27.13
2022-08-21T19:37:03.787Z,27.20
2022-08-21T19:39:39.529Z,27.11
2022-08-21T19:42:10.198Z,27.04
2022-08-21T19:44:37.959Z,27.04
2022-08-21T19:47:11.678Z,27.08
2022-08-21T19:49:40.032Z,27.06
2022-08-21T19:52:12.911Z,27.04
2022-08-21T19:54:54.798Z,26.96
2022-08-21T19:57:22.526Z,26.92
2022-08-21T19:59:50.018Z,26.91
2022-08-21T20:02:19.591Z,26.86
2022-08-21T20:04:53.916Z,26.91
2022-08-21T20:07:25.126Z,26.97
2022-08-21T20:09:54.680Z,26.88
2022-08-21T20:12:23.178Z,26.84
2022-08-21T20:14:50.825Z,26.77
2022-08-21T20:17:18.895Z,26.75
2022-08-21T20:19:49.201Z,26.56
2022-08-21T20:22:20.153Z,26.45
2022-08-21T20:24:47.444Z,26.52
2022-08-21T20:27:19.842Z,26.51
2022-08-21T20:29:47.304Z,26.45
2022-08-21T20:32:17.321Z,26.44
2022-08-21T20:37:36.770Z,26.35
2022-08-21T20:40:10.080Z,26.36
2022-08-21T20:42:38.691Z,26.41
2022-08-21T20:45:08.054Z,26.45
2022-08-21T20:47:36.929Z,26.46
2022-08-21T20:50:11.565Z,26.45
2022-08-21T20:52:41.346Z,26.38
2022-08-21T20:55:14.096Z,26.33
2022-08-21T20:57:51.072Z,26.23
2022-08-21T21:00:20.937Z,26.18
2022-08-21T21:06:13.663Z,26.36
2022-08-21T21:08:46.639Z,26.36
2022-08-21T21:11:23.009Z,26.30
2022-08-21T21:14:16.414Z,26.23
2022-08-21T21:16:50.775Z,26.25
2022-08-21T21:19:20.762Z,26.28
2022-08-21T21:21:51.512Z,26.20
2022-08-21T21:24:35.430Z,26.16
2022-08-21T21:27:12.213Z,26.14
2022-08-21T21:29:42.336Z,26.10
2022-08-21T21:32:09.815Z,26.15
2022-08-21T21:34:46.179Z,26.12
2022-08-21T21:40:20.589Z,26.20
2022-08-21T21:43:10.565Z,26.19
2022-08-21T21:45:57.633Z,26.13
2022-08-21T21:48:43.029Z,26.17
2022-08-21T21:51:32.828Z,26.13
2022-08-21T21:54:18.268Z,26.12
2022-08-21T21:56:55.898Z,26.16
2022-08-21T21:59:35.956Z,26.11
2022-08-21T22:02:09.140Z,26.11
2022-08-21T22:04:40.171Z,26.17
2022-08-21T22:07:21.349Z,26.18
2022-08-21T22:09:54.309Z,26.11
2022-08-21T22:12:29.499Z,26.19
2022-08-21T22:14:57.936Z,26.14
2022-08-21T22:17:54.484Z,26.06
2022-08-21T22:20:39.778Z,26.09
2022-08-21T22:23:10.310Z,26.06
2022-08-21T22:25:41.767Z,26.02
2022-08-21T22:28:11.432Z,26.14
2022-08-21T22:30:40.702Z,26.13
2022-08-21T22:33:12.911Z,26.10
2022-08-21T22:35:42.942Z,26.04
2022-08-21T22:38:16.424Z,25.85
2022-08-21T22:40:46.122Z,25.75
2022-08-21T22:43:18.333Z,25.75
2022-08-21T22:45:48.662Z,25.88
2022-08-21T22:48:22.526Z,25.72
2022-08-21T22:51:03.961Z,25.68
2022-08-21T22:53:37.416Z,25.60
2022-08-21T22:56:06.462Z,25.63
2022-08-21T22:58:36.789Z,25.59
2022-08-21T23:01:16.410Z,25.50
2022-08-21T23:03:53.560Z,25.48
2022-08-21T23:06:23.222Z,25.38
2022-08-21T23:08:51.091Z,25.27
2022-08-21T23:11:23.434Z,25.11
2022-08-21T23:13:53.231Z,24.96
2022-08-21T23:16:23.875Z,24.93
2022-08-21T23:19:01.602Z,24.95
2022-08-21T23:21:47.593Z,25.11
2022-08-21T23:24:33.464Z,25.02
2022-08-21T23:27:20.710Z,24.99
2022-08-21T23:29:55.714Z,25.07
2022-08-21T23:32:47.186Z,25.16
2022-08-21T23:35:44.376Z,25.14
2022-08-21T23:38:28.914Z,25.14
2022-08-21T23:41:01.870Z,25.23
2022-08-21T23:43:51.859Z,25.05
2022-08-21T23:46:18.968Z,25.09
2022-08-21T23:48:51.952Z,25.02
2022-08-21T23:51:28.673Z,25.08
2022-08-21T23:54:02.168Z,25.17
2022-08-21T23:56:47.865Z,25.16
2022-08-21T23:59:28.225Z,25.23
